createdAt,value
2023-01-13T00:02:11.190Z,87.40
2023-01-13T00:06:19.178Z,87.10
2023-01-13T00:10:20.950Z,85.88
2023-01-13T00:14:22.925Z,86.29
2023-01-13T00:18:25.454Z,86.16
2023-01-13T00:22:27.165Z,86.33
2023-01-13T00:26:35.753Z,85.05
2023-01-13T00:30:38.543Z,84.96
2023-01-13T00:34:40.308Z,85.51
2023-01-13T00:38:43.194Z,85.86
2023-01-13T00:43:03.550Z,85.93
2023-01-13T00:47:05.421Z,86.10
2023-01-13T00:51:17.080Z,85.76
2023-01-13T00:55:18.764Z,85.92
2023-01-13T00:59:20.578Z,86.36
2023-01-13T01:03:22.481Z,86.83
2023-01-13T01:07:24.177Z,86.90
2023-01-13T01:11:31.368Z,86.84
2023-01-13T01:15:33.101Z,87.28
2023-01-13T01:19:37.533Z,87.26
2023-01-13T01:23:40.329Z,87.24
2023-01-13T01:27:42.041Z,87.57
2023-01-13T01:31:44.193Z,87.46
2023-01-13T01:35:46.035Z,86.41
2023-01-13T01:39:47.778Z,86.75
2023-01-13T01:44:02.548Z,86.32
2023-01-13T01:48:06.149Z,86.75
2023-01-13T01:52:20.395Z,85.87
2023-01-13T01:56:22.200Z,85.85
2023-01-13T02:00:26.452Z,86.48
2023-01-13T02:04:36.436Z,86.18
2023-01-13T02:08:40.633Z,85.52
2023-01-13T02:12:44.804Z,85.67
2023-01-13T02:17:11.258Z,85.12
2023-01-13T02:22:03.074Z,84.91
2023-01-13T02:26:28.210Z,85.31
2023-01-13T02:31:06.840Z,85.43
2023-01-13T02:35:18.239Z,85.26
2023-01-13T02:39:51.101Z,85.75
2023-01-13T02:44:07.252Z,85.99
2023-01-13T02:48:10.895Z,86.10
2023-01-13T02:52:19.530Z,86.11
2023-01-13T02:56:24.220Z,86.43
2023-01-13T03:00:27.586Z,85.72
2023-01-13T03:04:46.498Z,85.98
2023-01-13T03:08:59.150Z,85.83
2023-01-13T03:13:01.081Z,85.40
2023-01-13T03:17:22.082Z,85.03
2023-01-13T03:21:44.740Z,84.79
2023-01-13T03:26:11.122Z,84.09
2023-01-13T03:30:18.124Z,84.29
2023-01-13T03:34:25.163Z,83.81
2023-01-13T03:38:34.157Z,84.37
2023-01-13T03:42:38.415Z,84.47
2023-01-13T03:47:06.476Z,83.79
2023-01-13T03:51:14.008Z,84.30
2023-01-13T03:55:19.919Z,84.19
2023-01-13T03:59:28.118Z,84.67
2023-01-13T04:03:38.459Z,84.26
2023-01-13T04:07:59.191Z,84.51
2023-01-13T04:12:08.315Z,83.93
2023-01-13T04:16:11.478Z,83.84
2023-01-13T04:20:13.783Z,83.80
2023-01-13T04:24:15.538Z,84.42
2023-01-13T04:28:18.833Z,84.46
2023-01-13T04:32:20.547Z,84.61
2023-01-13T04:36:27.605Z,84.53
2023-01-13T04:40:29.492Z,84.07
2023-01-13T04:44:35.250Z,84.01
2023-01-13T04:48:36.941Z,84.25
2023-01-13T04:52:39.393Z,84.18
2023-01-13T04:56:41.103Z,83.76
2023-01-13T05:00:42.991Z,84.04
2023-01-13T05:04:44.720Z,83.54
2023-01-13T05:08:46.518Z,83.62
2023-01-13T05:13:06.854Z,83.06
2023-01-13T05:17:11.013Z,82.57
2023-01-13T05:21:32.673Z,82.31
2023-01-13T05:25:37.938Z,81.42
2023-01-13T05:29:39.699Z,80.64
2023-01-13T05:33:41.417Z,81.05
2023-01-13T05:37:44.756Z,80.64
2023-01-13T05:42:04.977Z,79.80
2023-01-13T05:46:10.189Z,80.67
2023-01-13T05:50:11.991Z,79.87
2023-01-13T05:54:13.887Z,80.29
2023-01-13T05:58:17.319Z,80.21
2023-01-13T06:02:19.036Z,79.50
2023-01-13T06:06:21.756Z,79.87
2023-01-13T06:10:24.231Z,79.71
2023-01-13T06:14:25.970Z,79.84
2023-01-13T06:18:27.956Z,79.50
2023-01-13T06:22:35.791Z,79.18
2023-01-13T06:26:40.737Z,79.53
2023-01-13T06:30:46.784Z,79.27
2023-01-13T06:34:58.291Z,79.08
2023-01-13T06:39:02.104Z,79.10
2023-01-13T06:43:17.147Z,79.19
2023-01-13T06:47:19.495Z,79.20
2023-01-13T06:51:21.211Z,78.53
2023-01-13T06:55:22.954Z,79.29
2023-01-13T06:59:25.298Z,79.12
2023-01-13T07:03:26.992Z,78.50
2023-01-13T07:07:28.704Z,78.52
2023-01-13T07:11:30.411Z,78.61
2023-01-13T07:15:32.137Z,78.62
2023-01-13T07:19:33.865Z,78.24
2023-01-13T07:23:40.701Z,78.03
2023-01-13T07:27:42.441Z,78.45
2023-01-13T07:31:44.640Z,78.01
2023-01-13T07:35:48.087Z,78.02
2023-01-13T07:39:50.340Z,78.26
2023-01-13T07:43:52.667Z,78.17
2023-01-13T07:47:54.423Z,78.11
2023-01-13T07:51:56.167Z,77.70
2023-01-13T07:55:59.184Z,77.60
2023-01-13T08:00:00.902Z,78.21
2023-01-13T08:04:02.937Z,78.15
2023-01-13T08:08:04.805Z,78.52
2023-01-13T08:12:25.092Z,79.07
2023-01-13T08:16:26.878Z,79.55
2023-01-13T08:20:28.716Z,80.03
2023-01-13T08:24:30.458Z,80.58
2023-01-13T08:28:32.513Z,80.47
2023-01-13T08:32:34.278Z,81.05
2023-01-13T08:36:36.169Z,80.61
2023-01-13T08:40:40.246Z,80.89
2023-01-13T08:44:42.006Z,81.09
2023-01-13T08:48:43.741Z,80.94
2023-01-13T08:52:45.589Z,80.91
2023-01-13T08:56:47.454Z,81.27
2023-01-13T09:00:49.347Z,81.38
2023-01-13T09:04:51.587Z,81.64
2023-01-13T09:08:53.477Z,81.61
2023-01-13T09:13:13.563Z,81.27
2023-01-13T09:17:15.621Z,81.05
2023-01-13T09:21:19.830Z,80.75
2023-01-13T09:25:21.616Z,80.86
2023-01-13T09:29:23.981Z,80.59
2023-01-13T09:33:44.420Z,81.00
2023-01-13T09:37:46.186Z,80.39
2023-01-13T09:42:12.178Z,80.28
2023-01-13T09:46:43.365Z,80.37
2023-01-13T09:50:53.977Z,80.16
2023-01-13T09:55:06.051Z,80.57
2023-01-13T09:59:11.483Z,80.41
2023-01-13T10:03:22.345Z,80.23
2023-01-13T10:07:24.249Z,79.75
2023-01-13T10:11:55.571Z,79.76
2023-01-13T10:16:13.977Z,79.31
2023-01-13T10:20:26.143Z,79.44
2023-01-13T10:25:00.272Z,78.99
2023-01-13T10:29:02.041Z,78.84
2023-01-13T10:33:11.931Z,79.02
2023-01-13T10:37:25.946Z,78.60
2023-01-13T10:41:28.319Z,78.46
2023-01-13T10:45:30.053Z,78.61
2023-01-13T10:49:38.676Z,78.82
2023-01-13T10:54:03.081Z,78.32
2023-01-13T10:58:21.525Z,77.92
2023-01-13T11:02:32.015Z,78.25
2023-01-13T11:06:35.497Z,78.01
2023-01-13T11:10:47.083Z,77.89
2023-01-13T11:14:49.780Z,78.37
2023-01-13T11:19:13.155Z,78.27
2023-01-13T11:23:25.471Z,77.93
2023-01-13T11:27:43.247Z,77.90
2023-01-13T11:32:00.331Z,77.55
2023-01-13T11:36:13.662Z,77.88
2023-01-13T11:40:31.334Z,77.17
2023-01-13T11:44:41.536Z,77.19
2023-01-13T11:48:43.823Z,77.58
2023-01-13T11:53:07.732Z,77.09
2023-01-13T11:57:39.953Z,77.25
2023-01-13T12:02:12.806Z,77.30
2023-01-13T12:06:30.142Z,76.71
2023-01-13T12:11:01.209Z,76.88
2023-01-13T12:15:24.136Z,76.75
2023-01-13T12:19:29.248Z,77.17
2023-01-13T12:23:38.835Z,77.13
2023-01-13T12:27:51.767Z,76.80
2023-01-13T12:31:53.953Z,76.57
2023-01-13T12:36:23.217Z,76.66
2023-01-13T12:40:42.734Z,76.60
2023-01-13T12:45:12.465Z,76.35
2023-01-13T12:49:23.412Z,76.42
2023-01-13T12:53:36.376Z,76.23
2023-01-13T12:57:39.599Z,76.04
2023-01-13T13:01:41.450Z,75.74
2023-01-13T13:05:48.930Z,76.15
2023-01-13T13:09:54.935Z,75.93
2023-01-13T13:13:56.711Z,76.20
2023-01-13T13:18:17.007Z,76.31
2023-01-13T13:22:21.635Z,76.58
2023-01-13T13:26:26.038Z,76.23
2023-01-13T13:30:35.860Z,76.18
2023-01-13T13:34:43.937Z,76.49
2023-01-13T13:39:32.051Z,76.38
2023-01-13T13:44:03.727Z,76.98
2023-01-13T13:48:20.909Z,77.07
2023-01-13T13:52:31.842Z,76.88
2023-01-13T13:56:40.745Z,77.08
2023-01-13T14:00:47.957Z,77.39
2023-01-13T14:04:49.710Z,77.00
2023-01-13T14:08:51.451Z,77.13
2023-01-13T14:12:53.148Z,77.51
2023-01-13T14:16:55.147Z,77.38
2023-01-13T14:21:04.810Z,77.65
2023-01-13T14:25:28.296Z,77.10
2023-01-13T14:29:30.113Z,77.30
2023-01-13T14:33:47.386Z,77.17
2023-01-13T14:37:50.586Z,77.09
2023-01-13T14:41:53.478Z,77.08
2023-01-13T14:46:01.159Z,76.60
2023-01-13T14:50:19.327Z,76.84
2023-01-13T14:54:50.385Z,76.60
2023-01-13T14:58:52.105Z,76.78
2023-01-13T15:02:53.831Z,77.02
2023-01-13T15:06:57.438Z,76.79
2023-01-13T15:11:01.580Z,76.83
2023-01-13T15:15:06.658Z,77.14
2023-01-13T15:19:10.169Z,76.76
2023-01-13T15:23:12.365Z,77.18
2023-01-13T15:27:19.515Z,77.48
2023-01-13T15:31:21.919Z,77.53
2023-01-13T15:35:26.241Z,77.24
2023-01-13T15:39:27.995Z,77.66
2023-01-13T15:43:48.325Z,77.23
2023-01-13T15:47:50.103Z,77.25
2023-01-13T15:51:51.983Z,77.61
2023-01-13T15:55:58.541Z,77.55
2023-01-13T16:00:14.522Z,77.77
2023-01-13T16:04:16.208Z,77.75
2023-01-13T16:08:22.665Z,77.53
2023-01-13T16:12:24.495Z,78.29
2023-01-13T16:16:28.589Z,78.32
2023-01-13T16:20:30.859Z,78.35
2023-01-13T16:24:32.727Z,78.78
2023-01-13T16:28:35.971Z,79.14
2023-01-13T16:32:37.764Z,79.97
2023-01-13T16:36:39.711Z,80.54
2023-01-13T16:40:41.438Z,81.29
2023-01-13T16:44:44.195Z,82.20
2023-01-13T16:48:46.436Z,83.27
2023-01-13T16:52:48.339Z,83.89
2023-01-13T16:56:50.073Z,84.51
2023-01-13T17:00:53.029Z,84.76
2023-01-13T17:04:54.855Z,85.58
2023-01-13T17:09:01.429Z,85.76
2023-01-13T17:13:14.805Z,85.70
2023-01-13T17:17:25.750Z,84.76
2023-01-13T17:21:27.765Z,84.79
2023-01-13T17:25:29.658Z,84.55
2023-01-13T17:29:32.967Z,84.33
2023-01-13T17:33:37.246Z,84.24
2023-01-13T17:37:38.976Z,84.41
2023-01-13T17:41:40.721Z,84.02
2023-01-13T17:45:42.498Z,84.09
2023-01-13T17:49:44.331Z,83.80
2023-01-13T17:53:46.679Z,83.78
2023-01-13T17:57:48.399Z,83.74
2023-01-13T18:01:51.212Z,84.08
2023-01-13T18:05:52.963Z,84.05
2023-01-13T18:09:54.703Z,84.08
2023-01-13T18:14:00.309Z,84.41
2023-01-13T18:18:02.069Z,84.47
2023-01-13T18:22:22.385Z,84.27
2023-01-13T18:26:42.693Z,84.52
2023-01-13T18:30:44.499Z,84.49
2023-01-13T18:34:46.367Z,84.30
2023-01-13T18:38:49.865Z,84.32
2023-01-13T18:42:51.741Z,84.62
2023-01-13T18:46:53.554Z,84.70
2023-01-13T18:50:55.251Z,84.83
2023-01-13T18:54:57.015Z,84.69
2023-01-13T18:58:59.270Z,84.69
2023-01-13T19:07:08.820Z,84.24
2023-01-13T19:11:10.586Z,84.26
2023-01-13T19:15:12.335Z,84.27
2023-01-13T19:19:14.111Z,84.59
2023-01-13T19:23:15.920Z,84.27
2023-01-13T19:27:19.526Z,84.49
2023-01-13T19:31:21.308Z,84.55
2023-01-13T19:35:23.046Z,84.69
2023-01-13T19:39:25.135Z,85.14
2023-01-13T19:43:46.019Z,86.10
2023-01-13T19:47:47.859Z,86.33
2023-01-13T19:51:50.750Z,86.37
2023-01-13T19:55:52.980Z,86.56
2023-01-13T19:59:54.658Z,86.50
2023-01-13T20:04:02.860Z,86.81
2023-01-13T20:08:04.642Z,86.45
2023-01-13T20:12:11.656Z,86.26
2023-01-13T20:16:13.475Z,85.73
2023-01-13T20:20:16.250Z,85.68
2023-01-13T20:24:18.046Z,85.91
2023-01-13T20:28:20.105Z,85.29
2023-01-13T20:32:21.890Z,85.55
2023-01-13T20:36:31.330Z,85.21
2023-01-13T20:40:33.325Z,84.75
2023-01-13T20:44:35.320Z,84.82
2023-01-13T20:48:37.053Z,84.64
2023-01-13T20:52:38.982Z,83.94
2023-01-13T20:56:40.993Z,83.41
2023-01-13T21:00:42.793Z,83.09
2023-01-13T21:04:44.584Z,83.62
2023-01-13T21:08:50.274Z,83.41
2023-01-13T21:13:10.378Z,83.06
2023-01-13T21:17:32.645Z,82.99
2023-01-13T21:21:34.459Z,83.22
2023-01-13T21:25:39.518Z,83.02
2023-01-13T21:29:41.299Z,82.52
2023-01-13T21:33:43.831Z,82.58
2023-01-13T21:37:45.642Z,82.70
2023-01-13T21:42:05.958Z,82.55
2023-01-13T21:46:35.549Z,82.56
2023-01-13T21:50:38.588Z,82.06
2023-01-13T21:55:00.927Z,81.83
2023-01-13T21:59:02.876Z,82.22
2023-01-13T22:03:06.402Z,81.95
2023-01-13T22:07:08.211Z,81.85
2023-01-13T22:11:10.091Z,81.47
2023-01-13T22:15:15.009Z,81.50
2023-01-13T22:19:18.332Z,81.53
2023-01-13T22:23:21.451Z,81.10
2023-01-13T22:27:25.544Z,81.59
2023-01-13T22:31:27.385Z,80.64
2023-01-13T22:35:29.164Z,80.56
2023-01-13T22:39:31.353Z,80.86
2023-01-13T22:43:34.278Z,80.62
2023-01-13T22:47:36.075Z,80.61
2023-01-13T22:51:37.823Z,80.16
2023-01-13T22:55:39.599Z,80.55
2023-01-13T22:59:41.343Z,80.32
2023-01-13T23:03:46.466Z,79.90
2023-01-13T23:07:48.293Z,80.15
2023-01-13T23:11:50.048Z,79.74
2023-01-13T23:15:51.807Z,80.19
2023-01-13T23:19:53.563Z,80.39
2023-01-13T23:23:56.782Z,80.29
2023-01-13T23:27:59.507Z,80.34
2023-01-13T23:32:01.373Z,80.26
2023-01-13T23:36:05.904Z,80.18
2023-01-13T23:40:09.760Z,79.58
2023-01-13T23:44:11.561Z,79.39
2023-01-13T23:48:14.499Z,79.33
2023-01-13T23:52:16.523Z,79.56
2023-01-13T23:56:21.780Z,78.85
